sensor_id;sensor_type;location;lat;lon;timestamp;temperature;humidity
12959;DHT22;6544;51.666;6.634;2023-04-08T00:00:33;8.10;1.00
12959;DHT22;6544;51.666;6.634;2023-04-08T00:03:01;8.20;99.90
12959;DHT22;6544;51.666;6.634;2023-04-08T00:05:28;8.10;1.00
12959;DHT22;6544;51.666;6.634;2023-04-08T00:07:55;8.10;99.90
12959;DHT22;6544;51.666;6.634;2023-04-08T00:10:22;8.10;99.90
12959;DHT22;6544;51.666;6.634;2023-04-08T00:12:50;8.00;1.00
12959;DHT22;6544;51.666;6.634;2023-04-08T00:15:18;8.00;64.70
12959;DHT22;6544;51.666;6.634;2023-04-08T00:17:44;7.80;50.90
12959;DHT22;6544;51.666;6.634;2023-04-08T00:20:13;7.80;1.00
12959;DHT22;6544;51.666;6.634;2023-04-08T00:22:40;7.80;1.00
12959;DHT22;6544;51.666;6.634;2023-04-08T00:25:07;7.90;1.00
12959;DHT22;6544;51.666;6.634;2023-04-08T00:27:34;8.00;1.00
12959;DHT22;6544;51.666;6.634;2023-04-08T00:30:01;8.00;99.90
12959;DHT22;6544;51.666;6.634;2023-04-08T00:32:28;8.00;1.00
12959;DHT22;6544;51.666;6.634;2023-04-08T00:34:55;7.70;99.90
12959;DHT22;6544;51.666;6.634;2023-04-08T00:37:23;7.40;1.00
12959;DHT22;6544;51.666;6.634;2023-04-08T00:39:50;7.40;1.00
12959;DHT22;6544;51.666;6.634;2023-04-08T00:42:18;7.10;1.00
12959;DHT22;6544;51.666;6.634;2023-04-08T00:44:45;7.30;99.90
12959;DHT22;6544;51.666;6.634;2023-04-08T00:47:13;7.20;99.90
12959;DHT22;6544;51.666;6.634;2023-04-08T00:49:40;7.20;1.00
12959;DHT22;6544;51.666;6.634;2023-04-08T00:52:07;7.10;1.00
12959;DHT22;6544;51.666;6.634;2023-04-08T00:54:37;7.20;1.00
12959;DHT22;6544;51.666;6.634;2023-04-08T00:57:04;7.40;1.00
12959;DHT22;6544;51.666;6.634;2023-04-08T00:59:31;7.30;99.90
12959;DHT22;6544;51.666;6.634;2023-04-08T01:02:06;7.10;99.90
12959;DHT22;6544;51.666;6.634;2023-04-08T01:04:43;7.00;99.90
12959;DHT22;6544;51.666;6.634;2023-04-08T01:07:17;7.20;99.90
12959;DHT22;6544;51.666;6.634;2023-04-08T01:09:51;7.20;99.90
12959;DHT22;6544;51.666;6.634;2023-04-08T01:12:23;7.40;99.90
12959;DHT22;6544;51.666;6.634;2023-04-08T01:14:55;7.40;99.90
12959;DHT22;6544;51.666;6.634;2023-04-08T01:17:23;7.50;99.90
12959;DHT22;6544;51.666;6.634;2023-04-08T01:19:51;7.60;1.00
12959;DHT22;6544;51.666;6.634;2023-04-08T01:22:25;7.70;1.00
12959;DHT22;6544;51.666;6.634;2023-04-08T01:25:00;7.70;1.00
12959;DHT22;6544;51.666;6.634;2023-04-08T01:27:31;7.70;1.00
12959;DHT22;6544;51.666;6.634;2023-04-08T01:29:58;7.70;99.90
12959;DHT22;6544;51.666;6.634;2023-04-08T01:32:27;7.60;99.90
12959;DHT22;6544;51.666;6.634;2023-04-08T01:34:55;7.60;1.00
12959;DHT22;6544;51.666;6.634;2023-04-08T01:37:22;7.70;99.90
12959;DHT22;6544;51.666;6.634;2023-04-08T01:39:51;7.80;1.00
12959;DHT22;6544;51.666;6.634;2023-04-08T01:42:21;7.90;1.00
12959;DHT22;6544;51.666;6.634;2023-04-08T01:44:51;7.80;1.00
12959;DHT22;6544;51.666;6.634;2023-04-08T01:47:21;7.70;99.90
12959;DHT22;6544;51.666;6.634;2023-04-08T01:49:50;7.80;1.00
12959;DHT22;6544;51.666;6.634;2023-04-08T01:52:19;7.40;99.90
12959;DHT22;6544;51.666;6.634;2023-04-08T01:54:48;7.30;1.00
12959;DHT22;6544;51.666;6.634;2023-04-08T01:57:18;7.30;1.00
12959;DHT22;6544;51.666;6.634;2023-04-08T01:59:47;7.40;99.90
12959;DHT22;6544;51.666;6.634;2023-04-08T02:02:19;7.60;1.00
12959;DHT22;6544;51.666;6.634;2023-04-08T02:04:46;7.20;6.30
12959;DHT22;6544;51.666;6.634;2023-04-08T02:07:13;6.70;99.90
12959;DHT22;6544;51.666;6.634;2023-04-08T02:09:41;6.50;16.70
12959;DHT22;6544;51.666;6.634;2023-04-08T02:12:07;6.60;83.80
12959;DHT22;6544;51.666;6.634;2023-04-08T02:14:35;6.80;94.90
12959;DHT22;6544;51.666;6.634;2023-04-08T02:17:12;6.80;73.10
12959;DHT22;6544;51.666;6.634;2023-04-08T02:19:46;7.00;72.90
12959;DHT22;6544;51.666;6.634;2023-04-08T02:22:18;7.10;49.20
12959;DHT22;6544;51.666;6.634;2023-04-08T02:24:49;7.20;40.10
12959;DHT22;6544;51.666;6.634;2023-04-08T02:27:17;7.20;1.40
12959;DHT22;6544;51.666;6.634;2023-04-08T02:29:45;7.10;1.00
12959;DHT22;6544;51.666;6.634;2023-04-08T02:32:13;7.00;1.00
12959;DHT22;6544;51.666;6.634;2023-04-08T02:34:43;7.10;1.00
12959;DHT22;6544;51.666;6.634;2023-04-08T02:37:10;7.10;1.00
12959;DHT22;6544;51.666;6.634;2023-04-08T02:39:37;7.00;1.00
12959;DHT22;6544;51.666;6.634;2023-04-08T02:42:04;6.80;1.00
12959;DHT22;6544;51.666;6.634;2023-04-08T02:44:31;7.00;27.30
12959;DHT22;6544;51.666;6.634;2023-04-08T02:46:58;7.10;19.70
12959;DHT22;6544;51.666;6.634;2023-04-08T02:49:24;7.20;1.00
12959;DHT22;6544;51.666;6.634;2023-04-08T02:51:53;7.30;1.00
12959;DHT22;6544;51.666;6.634;2023-04-08T02:54:19;7.40;1.00
12959;DHT22;6544;51.666;6.634;2023-04-08T02:56:46;6.90;1.00
12959;DHT22;6544;51.666;6.634;2023-04-08T02:59:13;6.60;1.00
12959;DHT22;6544;51.666;6.634;2023-04-08T03:01:40;6.30;1.00
12959;DHT22;6544;51.666;6.634;2023-04-08T03:04:07;6.40;21.60
12959;DHT22;6544;51.666;6.634;2023-04-08T03:06:34;6.60;49.10
12959;DHT22;6544;51.666;6.634;2023-04-08T03:09:02;6.40;1.00
12959;DHT22;6544;51.666;6.634;2023-04-08T03:11:30;6.30;1.00
12959;DHT22;6544;51.666;6.634;2023-04-08T03:13:57;6.20;1.00
12959;DHT22;6544;51.666;6.634;2023-04-08T03:16:24;6.00;19.70
12959;DHT22;6544;51.666;6.634;2023-04-08T03:18:51;6.00;54.90
12959;DHT22;6544;51.666;6.634;2023-04-08T03:21:18;6.20;89.10
12959;DHT22;6544;51.666;6.634;2023-04-08T03:23:45;6.30;54.70
12959;DHT22;6544;51.666;6.634;2023-04-08T03:26:13;5.90;21.50
12959;DHT22;6544;51.666;6.634;2023-04-08T03:28:40;6.10;64.60
12959;DHT22;6544;51.666;6.634;2023-04-08T03:31:07;5.90;59.40
12959;DHT22;6544;51.666;6.634;2023-04-08T03:33:34;6.20;96.00
12959;DHT22;6544;51.666;6.634;2023-04-08T03:36:01;5.90;23.30
12959;DHT22;6544;51.666;6.634;2023-04-08T03:38:27;6.10;58.40
12959;DHT22;6544;51.666;6.634;2023-04-08T03:40:54;6.20;51.50
12959;DHT22;6544;51.666;6.634;2023-04-08T03:43:23;5.90;14.40
12959;DHT22;6544;51.666;6.634;2023-04-08T03:45:50;5.30;1.00
12959;DHT22;6544;51.666;6.634;2023-04-08T03:48:17;5.30;36.50
12959;DHT22;6544;51.666;6.634;2023-04-08T03:50:43;5.20;80.70
12959;DHT22;6544;51.666;6.634;2023-04-08T03:53:10;5.20;96.10
12959;DHT22;6544;51.666;6.634;2023-04-08T03:55:37;4.90;91.20
12959;DHT22;6544;51.666;6.634;2023-04-08T03:58:04;4.90;99.90
12959;DHT22;6544;51.666;6.634;2023-04-08T04:00:32;4.90;99.90
12959;DHT22;6544;51.666;6.634;2023-04-08T04:03:00;5.10;99.90
12959;DHT22;6544;51.666;6.634;2023-04-08T04:05:27;5.20;99.90
12959;DHT22;6544;51.666;6.634;2023-04-08T04:07:54;4.80;89.50
12959;DHT22;6544;51.666;6.634;2023-04-08T04:10:22;4.50;69.00
12959;DHT22;6544;51.666;6.634;2023-04-08T04:12:49;4.70;99.90
12959;DHT22;6544;51.666;6.634;2023-04-08T04:15:16;5.00;99.90
12959;DHT22;6544;51.666;6.634;2023-04-08T04:17:46;5.10;99.90
12959;DHT22;6544;51.666;6.634;2023-04-08T04:20:14;5.30;99.90
12959;DHT22;6544;51.666;6.634;2023-04-08T04:22:41;5.40;72.90
12959;DHT22;6544;51.666;6.634;2023-04-08T04:25:09;5.50;28.40
12959;DHT22;6544;51.666;6.634;2023-04-08T04:27:36;5.60;7.60
12959;DHT22;6544;51.666;6.634;2023-04-08T04:30:03;5.60;1.00
12959;DHT22;6544;51.666;6.634;2023-04-08T04:32:31;5.80;1.00
12959;DHT22;6544;51.666;6.634;2023-04-08T04:35:00;5.80;1.00
12959;DHT22;6544;51.666;6.634;2023-04-08T04:37:27;5.80;1.00
12959;DHT22;6544;51.666;6.634;2023-04-08T04:39:54;5.80;1.00
12959;DHT22;6544;51.666;6.634;2023-04-08T04:42:20;5.10;1.00
12959;DHT22;6544;51.666;6.634;2023-04-08T04:44:47;5.00;1.00
12959;DHT22;6544;51.666;6.634;2023-04-08T04:47:14;5.20;1.00
12959;DHT22;6544;51.666;6.634;2023-04-08T04:49:41;5.40;1.00
12959;DHT22;6544;51.666;6.634;2023-04-08T04:52:09;5.30;1.00
12959;DHT22;6544;51.666;6.634;2023-04-08T04:54:36;5.20;1.00
12959;DHT22;6544;51.666;6.634;2023-04-08T04:57:03;4.90;99.90
12959;DHT22;6544;51.666;6.634;2023-04-08T04:59:30;4.60;1.00
12959;DHT22;6544;51.666;6.634;2023-04-08T05:01:57;4.30;1.00
12959;DHT22;6544;51.666;6.634;2023-04-08T05:04:24;4.50;1.00
12959;DHT22;6544;51.666;6.634;2023-04-08T05:06:51;4.60;1.00
12959;DHT22;6544;51.666;6.634;2023-04-08T05:09:20;4.40;1.00
12959;DHT22;6544;51.666;6.634;2023-04-08T05:11:47;4.10;1.00
12959;DHT22;6544;51.666;6.634;2023-04-08T05:14:13;4.00;1.00
12959;DHT22;6544;51.666;6.634;2023-04-08T05:16:40;3.90;1.00
12959;DHT22;6544;51.666;6.634;2023-04-08T05:19:07;3.60;25.30
12959;DHT22;6544;51.666;6.634;2023-04-08T05:21:34;3.80;95.00
12959;DHT22;6544;51.666;6.634;2023-04-08T05:24:01;4.10;99.90
12959;DHT22;6544;51.666;6.634;2023-04-08T05:26:29;4.40;99.90
12959;DHT22;6544;51.666;6.634;2023-04-08T05:28:57;4.50;99.90
12959;DHT22;6544;51.666;6.634;2023-04-08T05:31:24;4.40;66.10
12959;DHT22;6544;51.666;6.634;2023-04-08T05:33:51;4.10;3.40
12959;DHT22;6544;51.666;6.634;2023-04-08T05:36:18;4.10;4.80
12959;DHT22;6544;51.666;6.634;2023-04-08T05:38:45;4.40;33.00
12959;DHT22;6544;51.666;6.634;2023-04-08T05:41:12;4.20;1.00
12959;DHT22;6544;51.666;6.634;2023-04-08T05:43:40;4.10;1.00
12959;DHT22;6544;51.666;6.634;2023-04-08T05:46:07;4.40;5.70
12959;DHT22;6544;51.666;6.634;2023-04-08T05:48:35;4.50;1.00
12959;DHT22;6544;51.666;6.634;2023-04-08T05:51:05;4.60;1.00
12959;DHT22;6544;51.666;6.634;2023-04-08T05:53:32;4.60;1.00
12959;DHT22;6544;51.666;6.634;2023-04-08T05:55:59;4.50;1.00
12959;DHT22;6544;51.666;6.634;2023-04-08T05:58:26;4.60;1.00
12959;DHT22;6544;51.666;6.634;2023-04-08T06:00:54;4.50;1.00
12959;DHT22;6544;51.666;6.634;2023-04-08T06:03:21;4.40;1.00
12959;DHT22;6544;51.666;6.634;2023-04-08T06:05:47;4.40;1.00
12959;DHT22;6544;51.666;6.634;2023-04-08T06:08:14;4.10;1.00
12959;DHT22;6544;51.666;6.634;2023-04-08T06:10:48;3.90;1.00
12959;DHT22;6544;51.666;6.634;2023-04-08T06:13:15;4.20;1.00
12959;DHT22;6544;51.666;6.634;2023-04-08T06:15:42;4.30;1.00
12959;DHT22;6544;51.666;6.634;2023-04-08T06:18:10;4.50;1.00
12959;DHT22;6544;51.666;6.634;2023-04-08T06:20:37;4.60;1.00
12959;DHT22;6544;51.666;6.634;2023-04-08T06:23:04;4.00;1.00
12959;DHT22;6544;51.666;6.634;2023-04-08T06:25:31;4.30;1.00
12959;DHT22;6544;51.666;6.634;2023-04-08T06:27:58;4.50;1.00
12959;DHT22;6544;51.666;6.634;2023-04-08T06:30:25;4.40;1.00
12959;DHT22;6544;51.666;6.634;2023-04-08T06:32:52;4.20;1.00
12959;DHT22;6544;51.666;6.634;2023-04-08T06:35:20;4.20;1.00
12959;DHT22;6544;51.666;6.634;2023-04-08T06:37:47;4.50;1.00
12959;DHT22;6544;51.666;6.634;2023-04-08T06:40:14;4.60;1.00
12959;DHT22;6544;51.666;6.634;2023-04-08T06:42:41;4.70;1.00
12959;DHT22;6544;51.666;6.634;2023-04-08T06:45:10;4.60;1.00
12959;DHT22;6544;51.666;6.634;2023-04-08T06:47:37;4.40;1.00
12959;DHT22;6544;51.666;6.634;2023-04-08T06:50:04;4.50;1.00
12959;DHT22;6544;51.666;6.634;2023-04-08T06:52:33;4.40;1.00
12959;DHT22;6544;51.666;6.634;2023-04-08T06:55:00;4.30;1.00
12959;DHT22;6544;51.666;6.634;2023-04-08T06:57:27;4.30;1.00
12959;DHT22;6544;51.666;6.634;2023-04-08T06:59:54;4.50;1.00
12959;DHT22;6544;51.666;6.634;2023-04-08T07:02:21;4.70;1.00
12959;DHT22;6544;51.666;6.634;2023-04-08T07:04:48;4.60;1.00
12959;DHT22;6544;51.666;6.634;2023-04-08T07:07:15;4.50;1.00
12959;DHT22;6544;51.666;6.634;2023-04-08T07:09:43;4.60;1.00
12959;DHT22;6544;51.666;6.634;2023-04-08T07:12:11;4.50;1.00
12959;DHT22;6544;51.666;6.634;2023-04-08T07:14:37;4.50;1.00
12959;DHT22;6544;51.666;6.634;2023-04-08T07:17:04;4.40;1.00
12959;DHT22;6544;51.666;6.634;2023-04-08T07:19:31;4.40;1.00
12959;DHT22;6544;51.666;6.634;2023-04-08T07:21:58;4.40;1.00
12959;DHT22;6544;51.666;6.634;2023-04-08T07:24:25;4.40;1.00
12959;DHT22;6544;51.666;6.634;2023-04-08T07:26:53;4.50;1.00
12959;DHT22;6544;51.666;6.634;2023-04-08T07:29:21;4.70;1.00
12959;DHT22;6544;51.666;6.634;2023-04-08T07:31:48;4.80;1.00
12959;DHT22;6544;51.666;6.634;2023-04-08T07:34:15;4.90;1.00
12959;DHT22;6544;51.666;6.634;2023-04-08T07:36:41;5.20;1.00
12959;DHT22;6544;51.666;6.634;2023-04-08T07:39:08;5.30;1.00
12959;DHT22;6544;51.666;6.634;2023-04-08T07:41:35;5.30;1.00
12959;DHT22;6544;51.666;6.634;2023-04-08T07:44:03;5.20;1.00
12959;DHT22;6544;51.666;6.634;2023-04-08T07:46:30;5.30;1.00
12959;DHT22;6544;51.666;6.634;2023-04-08T07:48:58;5.20;1.00
12959;DHT22;6544;51.666;6.634;2023-04-08T07:51:25;5.30;1.00
12959;DHT22;6544;51.666;6.634;2023-04-08T07:53:52;5.50;1.00
12959;DHT22;6544;51.666;6.634;2023-04-08T07:56:19;5.40;1.00
12959;DHT22;6544;51.666;6.634;2023-04-08T07:58:46;5.50;1.00
12959;DHT22;6544;51.666;6.634;2023-04-08T08:01:17;5.70;1.00
12959;DHT22;6544;51.666;6.634;2023-04-08T08:03:47;5.70;1.00
12959;DHT22;6544;51.666;6.634;2023-04-08T08:06:14;5.70;1.00
12959;DHT22;6544;51.666;6.634;2023-04-08T08:08:41;5.80;1.00
12959;DHT22;6544;51.666;6.634;2023-04-08T08:11:08;6.10;1.00
12959;DHT22;6544;51.666;6.634;2023-04-08T08:13:35;6.20;1.00
12959;DHT22;6544;51.666;6.634;2023-04-08T08:16:02;6.30;99.90
12959;DHT22;6544;51.666;6.634;2023-04-08T08:18:38;6.50;99.90
12959;DHT22;6544;51.666;6.634;2023-04-08T08:21:05;6.80;1.00
12959;DHT22;6544;51.666;6.634;2023-04-08T08:23:32;7.00;1.00
12959;DHT22;6544;51.666;6.634;2023-04-08T08:25:59;7.10;1.00
12959;DHT22;6544;51.666;6.634;2023-04-08T08:28:26;7.20;99.90
12959;DHT22;6544;51.666;6.634;2023-04-08T08:30:53;7.30;13.10
12959;DHT22;6544;51.666;6.634;2023-04-08T08:33:20;7.30;1.00
12959;DHT22;6544;51.666;6.634;2023-04-08T08:35:49;7.20;84.60
12959;DHT22;6544;51.666;6.634;2023-04-08T08:38:16;7.10;1.00
12959;DHT22;6544;51.666;6.634;2023-04-08T08:40:43;7.10;99.90
12959;DHT22;6544;51.666;6.634;2023-04-08T08:43:11;7.20;1.00
12959;DHT22;6544;51.666;6.634;2023-04-08T08:45:38;7.10;99.90
12959;DHT22;6544;51.666;6.634;2023-04-08T08:48:06;7.20;99.90
12959;DHT22;6544;51.666;6.634;2023-04-08T08:50:34;7.30;99.90
12959;DHT22;6544;51.666;6.634;2023-04-08T08:53:02;7.30;99.90
12959;DHT22;6544;51.666;6.634;2023-04-08T08:55:31;7.40;1.00
12959;DHT22;6544;51.666;6.634;2023-04-08T08:57:58;7.60;1.00
12959;DHT22;6544;51.666;6.634;2023-04-08T09:00:33;7.50;70.20
12959;DHT22;6544;51.666;6.634;2023-04-08T09:03:14;7.50;99.90
12959;DHT22;6544;51.666;6.634;2023-04-08T09:05:49;7.50;99.90
12959;DHT22;6544;51.666;6.634;2023-04-08T09:08:28;7.60;1.00
12959;DHT22;6544;51.666;6.634;2023-04-08T09:11:10;7.70;99.90
12959;DHT22;6544;51.666;6.634;2023-04-08T09:13:37;7.70;99.90
12959;DHT22;6544;51.666;6.634;2023-04-08T09:16:05;7.70;99.90
12959;DHT22;6544;51.666;6.634;2023-04-08T09:18:35;7.90;99.90
12959;DHT22;6544;51.666;6.634;2023-04-08T09:21:02;8.10;99.90
12959;DHT22;6544;51.666;6.634;2023-04-08T09:23:46;8.20;92.20
12959;DHT22;6544;51.666;6.634;2023-04-08T09:26:15;8.40;1.00
12959;DHT22;6544;51.666;6.634;2023-04-08T09:28:43;8.50;1.00
12959;DHT22;6544;51.666;6.634;2023-04-08T09:31:24;8.60;1.00
12959;DHT22;6544;51.666;6.634;2023-04-08T09:33:53;8.80;1.00
12959;DHT22;6544;51.666;6.634;2023-04-08T09:36:21;8.80;1.00
12959;DHT22;6544;51.666;6.634;2023-04-08T09:38:49;9.00;1.00
12959;DHT22;6544;51.666;6.634;2023-04-08T09:41:17;9.00;1.00
12959;DHT22;6544;51.666;6.634;2023-04-08T09:43:47;9.00;1.00
12959;DHT22;6544;51.666;6.634;2023-04-08T09:46:15;9.30;1.00
12959;DHT22;6544;51.666;6.634;2023-04-08T09:48:49;9.50;1.00
12959;DHT22;6544;51.666;6.634;2023-04-08T09:51:18;9.40;1.00
12959;DHT22;6544;51.666;6.634;2023-04-08T09:53:59;9.50;1.00
12959;DHT22;6544;51.666;6.634;2023-04-08T09:56:32;9.60;99.90
12959;DHT22;6544;51.666;6.634;2023-04-08T09:59:02;9.60;99.90
12959;DHT22;6544;51.666;6.634;2023-04-08T10:01:37;9.70;99.90
12959;DHT22;6544;51.666;6.634;2023-04-08T10:04:07;9.30;99.90
12959;DHT22;6544;51.666;6.634;2023-04-08T10:06:36;9.50;99.90
12959;DHT22;6544;51.666;6.634;2023-04-08T10:09:05;9.50;99.90
12959;DHT22;6544;51.666;6.634;2023-04-08T10:11:33;9.50;99.90
12959;DHT22;6544;51.666;6.634;2023-04-08T10:14:01;9.60;99.90
12959;DHT22;6544;51.666;6.634;2023-04-08T10:16:28;9.40;99.90
12959;DHT22;6544;51.666;6.634;2023-04-08T10:18:55;9.40;99.90
12959;DHT22;6544;51.666;6.634;2023-04-08T10:21:36;9.40;99.90
12959;DHT22;6544;51.666;6.634;2023-04-08T10:24:09;9.40;99.90
12959;DHT22;6544;51.666;6.634;2023-04-08T10:26:40;9.40;99.90
12959;DHT22;6544;51.666;6.634;2023-04-08T10:29:31;9.50;99.90
12959;DHT22;6544;51.666;6.634;2023-04-08T10:31:59;9.60;99.90
12959;DHT22;6544;51.666;6.634;2023-04-08T10:34:28;9.60;82.90
12959;DHT22;6544;51.666;6.634;2023-04-08T10:36:56;9.70;1.00
12959;DHT22;6544;51.666;6.634;2023-04-08T10:39:27;9.70;33.80
12959;DHT22;6544;51.666;6.634;2023-04-08T10:41:56;9.70;1.00
12959;DHT22;6544;51.666;6.634;2023-04-08T10:44:24;9.80;1.00
12959;DHT22;6544;51.666;6.634;2023-04-08T10:46:53;9.80;1.00
12959;DHT22;6544;51.666;6.634;2023-04-08T10:49:20;9.80;1.00
12959;DHT22;6544;51.666;6.634;2023-04-08T10:51:48;9.80;1.00
12959;DHT22;6544;51.666;6.634;2023-04-08T10:54:16;9.70;2.50
12959;DHT22;6544;51.666;6.634;2023-04-08T10:56:46;9.80;94.00
12959;DHT22;6544;51.666;6.634;2023-04-08T10:59:14;9.60;1.00
12959;DHT22;6544;51.666;6.634;2023-04-08T11:01:45;9.60;1.00
12959;DHT22;6544;51.666;6.634;2023-04-08T11:04:16;9.80;1.00
12959;DHT22;6544;51.666;6.634;2023-04-08T11:06:45;9.80;1.00
12959;DHT22;6544;51.666;6.634;2023-04-08T11:09:13;9.70;1.00
12959;DHT22;6544;51.666;6.634;2023-04-08T11:11:45;9.70;1.00
12959;DHT22;6544;51.666;6.634;2023-04-08T11:14:12;9.90;1.00
12959;DHT22;6544;51.666;6.634;2023-04-08T11:16:39;9.90;1.00
12959;DHT22;6544;51.666;6.634;2023-04-08T11:19:07;10.00;1.00
12959;DHT22;6544;51.666;6.634;2023-04-08T11:21:37;10.10;1.00
12959;DHT22;6544;51.666;6.634;2023-04-08T11:24:09;10.10;1.00
12959;DHT22;6544;51.666;6.634;2023-04-08T11:26:38;9.90;1.00
12959;DHT22;6544;51.666;6.634;2023-04-08T11:29:09;10.00;1.00
12959;DHT22;6544;51.666;6.634;2023-04-08T11:31:37;10.10;1.00
12959;DHT22;6544;51.666;6.634;2023-04-08T11:34:04;10.00;1.00
12959;DHT22;6544;51.666;6.634;2023-04-08T11:36:31;10.10;1.00
12959;DHT22;6544;51.666;6.634;2023-04-08T11:39:05;10.10;1.00
12959;DHT22;6544;51.666;6.634;2023-04-08T11:41:36;9.90;1.00
12959;DHT22;6544;51.666;6.634;2023-04-08T11:44:06;10.10;1.00
12959;DHT22;6544;51.666;6.634;2023-04-08T11:46:34;10.10;1.00
12959;DHT22;6544;51.666;6.634;2023-04-08T11:49:05;10.10;1.00
12959;DHT22;6544;51.666;6.634;2023-04-08T11:51:33;10.20;1.00
12959;DHT22;6544;51.666;6.634;2023-04-08T11:54:03;10.30;1.00
12959;DHT22;6544;51.666;6.634;2023-04-08T11:56:44;10.30;1.00
12959;DHT22;6544;51.666;6.634;2023-04-08T11:59:12;10.40;1.00
12959;DHT22;6544;51.666;6.634;2023-04-08T12:01:40;10.40;1.00
12959;DHT22;6544;51.666;6.634;2023-04-08T12:04:07;10.50;1.00
12959;DHT22;6544;51.666;6.634;2023-04-08T12:06:34;10.60;1.00
12959;DHT22;6544;51.666;6.634;2023-04-08T12:09:01;10.70;1.00
12959;DHT22;6544;51.666;6.634;2023-04-08T12:11:28;10.80;1.00
12959;DHT22;6544;51.666;6.634;2023-04-08T12:13:55;10.90;1.00
12959;DHT22;6544;51.666;6.634;2023-04-08T12:16:23;11.00;1.00
12959;DHT22;6544;51.666;6.634;2023-04-08T12:18:50;10.90;1.00
12959;DHT22;6544;51.666;6.634;2023-04-08T12:21:17;11.00;1.00
12959;DHT22;6544;51.666;6.634;2023-04-08T12:23:44;11.10;1.00
12959;DHT22;6544;51.666;6.634;2023-04-08T12:26:11;11.20;1.00
12959;DHT22;6544;51.666;6.634;2023-04-08T12:28:39;11.20;1.00
12959;DHT22;6544;51.666;6.634;2023-04-08T12:31:06;11.30;1.00
12959;DHT22;6544;51.666;6.634;2023-04-08T12:33:34;11.40;1.00
12959;DHT22;6544;51.666;6.634;2023-04-08T12:36:01;11.40;1.00
12959;DHT22;6544;51.666;6.634;2023-04-08T12:38:28;11.30;1.00
12959;DHT22;6544;51.666;6.634;2023-04-08T12:40:55;11.40;1.00
12959;DHT22;6544;51.666;6.634;2023-04-08T12:43:22;11.50;1.00
12959;DHT22;6544;51.666;6.634;2023-04-08T12:45:49;11.60;1.00
12959;DHT22;6544;51.666;6.634;2023-04-08T12:48:16;11.70;1.00
12959;DHT22;6544;51.666;6.634;2023-04-08T12:50:45;11.70;1.00
12959;DHT22;6544;51.666;6.634;2023-04-08T12:53:12;11.80;1.00
12959;DHT22;6544;51.666;6.634;2023-04-08T12:55:39;11.80;1.00
12959;DHT22;6544;51.666;6.634;2023-04-08T12:58:06;11.60;1.00
12959;DHT22;6544;51.666;6.634;2023-04-08T13:00:33;11.70;1.00
12959;DHT22;6544;51.666;6.634;2023-04-08T13:03:02;11.80;1.00
12959;DHT22;6544;51.666;6.634;2023-04-08T13:05:29;11.90;1.00
12959;DHT22;6544;51.666;6.634;2023-04-08T13:07:57;12.00;1.00
12959;DHT22;6544;51.666;6.634;2023-04-08T13:10:24;12.20;1.00
12959;DHT22;6544;51.666;6.634;2023-04-08T13:12:52;12.20;1.00
12959;DHT22;6544;51.666;6.634;2023-04-08T13:15:19;12.10;1.00
12959;DHT22;6544;51.666;6.634;2023-04-08T13:17:46;12.00;1.00
12959;DHT22;6544;51.666;6.634;2023-04-08T13:20:13;11.90;1.00
12959;DHT22;6544;51.666;6.634;2023-04-08T13:22:40;11.70;1.00
12959;DHT22;6544;51.666;6.634;2023-04-08T13:25:09;11.80;1.00
12959;DHT22;6544;51.666;6.634;2023-04-08T13:27:35;11.90;1.00
12959;DHT22;6544;51.666;6.634;2023-04-08T13:30:03;11.90;1.00
12959;DHT22;6544;51.666;6.634;2023-04-08T13:32:30;11.70;1.00
12959;DHT22;6544;51.666;6.634;2023-04-08T13:34:57;11.90;1.00
12959;DHT22;6544;51.666;6.634;2023-04-08T13:37:24;11.90;1.00
12959;DHT22;6544;51.666;6.634;2023-04-08T13:39:51;12.00;1.00
12959;DHT22;6544;51.666;6.634;2023-04-08T13:42:20;12.10;1.00
12959;DHT22;6544;51.666;6.634;2023-04-08T13:44:47;12.00;1.00
12959;DHT22;6544;51.666;6.634;2023-04-08T13:47:14;12.00;1.00
12959;DHT22;6544;51.666;6.634;2023-04-08T13:49:41;12.10;1.00
12959;DHT22;6544;51.666;6.634;2023-04-08T13:52:08;12.10;1.00
12959;DHT22;6544;51.666;6.634;2023-04-08T13:54:35;12.10;1.00
12959;DHT22;6544;51.666;6.634;2023-04-08T13:57:02;12.10;1.00
12959;DHT22;6544;51.666;6.634;2023-04-08T13:59:31;11.80;1.00
12959;DHT22;6544;51.666;6.634;2023-04-08T14:01:58;11.90;1.00
12959;DHT22;6544;51.666;6.634;2023-04-08T14:04:25;12.00;1.00
12959;DHT22;6544;51.666;6.634;2023-04-08T14:06:52;12.10;1.00
12959;DHT22;6544;51.666;6.634;2023-04-08T14:09:19;12.10;1.00
12959;DHT22;6544;51.666;6.634;2023-04-08T14:11:46;12.20;1.00
12959;DHT22;6544;51.666;6.634;2023-04-08T14:14:13;12.00;1.00
12959;DHT22;6544;51.666;6.634;2023-04-08T14:16:42;12.00;1.00
12959;DHT22;6544;51.666;6.634;2023-04-08T14:19:09;12.00;1.00
12959;DHT22;6544;51.666;6.634;2023-04-08T14:21:36;12.00;1.00
12959;DHT22;6544;51.666;6.634;2023-04-08T14:24:04;12.00;1.00
12959;DHT22;6544;51.666;6.634;2023-04-08T14:26:31;12.00;1.00
12959;DHT22;6544;51.666;6.634;2023-04-08T14:29:01;12.00;1.00
12959;DHT22;6544;51.666;6.634;2023-04-08T14:31:28;12.20;1.00
12959;DHT22;6544;51.666;6.634;2023-04-08T14:33:56;12.10;1.00
12959;DHT22;6544;51.666;6.634;2023-04-08T14:36:23;12.20;1.00
12959;DHT22;6544;51.666;6.634;2023-04-08T14:38:50;12.20;1.00
12959;DHT22;6544;51.666;6.634;2023-04-08T14:41:17;12.30;1.00
12959;DHT22;6544;51.666;6.634;2023-04-08T14:43:45;12.20;1.00
12959;DHT22;6544;51.666;6.634;2023-04-08T14:46:12;12.10;1.00
12959;DHT22;6544;51.666;6.634;2023-04-08T14:48:43;12.10;1.00
12959;DHT22;6544;51.666;6.634;2023-04-08T14:51:11;12.10;1.00
12959;DHT22;6544;51.666;6.634;2023-04-08T14:53:38;12.20;1.00
12959;DHT22;6544;51.666;6.634;2023-04-08T14:56:07;11.90;1.00
12959;DHT22;6544;51.666;6.634;2023-04-08T14:58:34;11.90;1.00
12959;DHT22;6544;51.666;6.634;2023-04-08T15:01:01;12.00;1.00
12959;DHT22;6544;51.666;6.634;2023-04-08T15:03:29;12.10;1.00
12959;DHT22;6544;51.666;6.634;2023-04-08T15:05:56;12.10;1.00
12959;DHT22;6544;51.666;6.634;2023-04-08T15:08:24;12.10;1.00
12959;DHT22;6544;51.666;6.634;2023-04-08T15:10:51;12.20;1.00
12959;DHT22;6544;51.666;6.634;2023-04-08T15:13:32;12.20;1.00
12959;DHT22;6544;51.666;6.634;2023-04-08T15:16:00;12.30;1.00
12959;DHT22;6544;51.666;6.634;2023-04-08T15:18:27;12.20;1.00
12959;DHT22;6544;51.666;6.634;2023-04-08T15:20:54;12.10;1.00
12959;DHT22;6544;51.666;6.634;2023-04-08T15:23:21;12.20;1.00
12959;DHT22;6544;51.666;6.634;2023-04-08T15:25:50;12.20;1.00
12959;DHT22;6544;51.666;6.634;2023-04-08T15:28:16;12.10;1.00
12959;DHT22;6544;51.666;6.634;2023-04-08T15:30:43;12.10;1.00
12959;DHT22;6544;51.666;6.634;2023-04-08T15:33:10;12.10;1.00
12959;DHT22;6544;51.666;6.634;2023-04-08T15:35:37;12.10;1.00
12959;DHT22;6544;51.666;6.634;2023-04-08T15:38:04;12.00;1.00
12959;DHT22;6544;51.666;6.634;2023-04-08T15:40:32;11.80;34.40
12959;DHT22;6544;51.666;6.634;2023-04-08T15:43:00;11.90;22.60
12959;DHT22;6544;51.666;6.634;2023-04-08T15:45:28;11.80;50.00
12959;DHT22;6544;51.666;6.634;2023-04-08T15:47:55;11.80;97.30
12959;DHT22;6544;51.666;6.634;2023-04-08T15:50:22;11.80;99.90
12959;DHT22;6544;51.666;6.634;2023-04-08T15:53:03;11.70;99.90
12959;DHT22;6544;51.666;6.634;2023-04-08T15:55:30;11.70;99.90
12959;DHT22;6544;51.666;6.634;2023-04-08T15:57:57;11.70;99.90
12959;DHT22;6544;51.666;6.634;2023-04-08T16:00:25;11.70;99.90
12959;DHT22;6544;51.666;6.634;2023-04-08T16:02:52;11.80;99.90
12959;DHT22;6544;51.666;6.634;2023-04-08T16:05:19;11.70;99.90
12959;DHT22;6544;51.666;6.634;2023-04-08T16:07:46;11.60;99.90
12959;DHT22;6544;51.666;6.634;2023-04-08T16:10:13;11.60;99.90
12959;DHT22;6544;51.666;6.634;2023-04-08T16:12:40;11.70;99.90